sensor_id;sensor_type;location;lat;lon;timestamp;pressure;altitude;pressure_sealevel;temperature;humidity
15817;BME280;8009;50.070;8.232;2023-11-19T00:00:21;99728.97;;;11.43;75.56
15817;BME280;8009;50.070;8.232;2023-11-19T00:02:52;99729.94;;;11.54;75.12
15817;BME280;8009;50.070;8.232;2023-11-19T00:05:30;99740.75;;;11.54;75.41
15817;BME280;8009;50.070;8.232;2023-11-19T00:07:59;99742.50;;;11.76;74.76
15817;BME280;8009;50.070;8.232;2023-11-19T00:10:27;99763.84;;;11.58;74.99
15817;BME280;8009;50.070;8.232;2023-11-19T00:12:56;99769.78;;;11.40;75.83
15817;BME280;8009;50.070;8.232;2023-11-19T00:15:24;99771.78;;;11.38;76.07
15817;BME280;8009;50.070;8.232;2023-11-19T00:17:56;99767.00;;;11.63;75.25
15817;BME280;8009;50.070;8.232;2023-11-19T00:20:30;99755.97;;;11.98;73.58
15817;BME280;8009;50.070;8.232;2023-11-19T00:22:58;99751.59;;;12.07;73.63
15817;BME280;8009;50.070;8.232;2023-11-19T00:25:27;99743.22;;;12.10;73.04
15817;BME280;8009;50.070;8.232;2023-11-19T00:27:56;99746.84;;;11.99;73.79
15817;BME280;8009;50.070;8.232;2023-11-19T00:30:24;99748.31;;;12.03;73.39
15817;BME280;8009;50.070;8.232;2023-11-19T00:32:57;99735.66;;;11.71;74.40
15817;BME280;8009;50.070;8.232;2023-11-19T00:35:26;99724.75;;;11.83;74.40
15817;BME280;8009;50.070;8.232;2023-11-19T00:37:57;99722.91;;;11.94;73.79
15817;BME280;8009;50.070;8.232;2023-11-19T00:40:25;99746.66;;;11.91;74.02
15817;BME280;8009;50.070;8.232;2023-11-19T00:42:54;99743.34;;;12.08;73.27
15817;BME280;8009;50.070;8.232;2023-11-19T00:45:22;99733.53;;;12.07;73.21
15817;BME280;8009;50.070;8.232;2023-11-19T00:47:50;99723.88;;;11.93;73.85
15817;BME280;8009;50.070;8.232;2023-11-19T00:50:21;99730.97;;;12.06;73.44
15817;BME280;8009;50.070;8.232;2023-11-19T00:52:49;99722.94;;;12.04;73.63
15817;BME280;8009;50.070;8.232;2023-11-19T00:55:15;99715.84;;;12.03;73.44
15817;BME280;8009;50.070;8.232;2023-11-19T00:57:43;99711.53;;;12.01;73.74
15817;BME280;8009;50.070;8.232;2023-11-19T01:00:13;99694.25;;;11.60;75.60
15817;BME280;8009;50.070;8.232;2023-11-19T01:02:44;99679.63;;;11.94;74.13
15817;BME280;8009;50.070;8.232;2023-11-19T01:05:14;99681.44;;;12.15;73.45
15817;BME280;8009;50.070;8.232;2023-11-19T01:07:49;99676.94;;;12.04;73.95
15817;BME280;8009;50.070;8.232;2023-11-19T01:10:19;99679.34;;;12.28;72.90
15817;BME280;8009;50.070;8.232;2023-11-19T01:12:47;99674.75;;;12.19;73.06
15817;BME280;8009;50.070;8.232;2023-11-19T01:15:15;99675.88;;;12.16;73.62
15817;BME280;8009;50.070;8.232;2023-11-19T01:17:44;99684.13;;;12.15;73.40
15817;BME280;8009;50.070;8.232;2023-11-19T01:20:12;99682.94;;;12.08;73.76
15817;BME280;8009;50.070;8.232;2023-11-19T01:22:41;99665.53;;;12.01;73.76
15817;BME280;8009;50.070;8.232;2023-11-19T01:25:12;99681.59;;;12.13;73.62
15817;BME280;8009;50.070;8.232;2023-11-19T01:27:41;99691.25;;;12.16;73.47
15817;BME280;8009;50.070;8.232;2023-11-19T01:30:10;99697.00;;;12.23;73.16
15817;BME280;8009;50.070;8.232;2023-11-19T01:32:39;99686.19;;;12.02;74.03
15817;BME280;8009;50.070;8.232;2023-11-19T01:35:08;99698.34;;;11.75;74.99
15817;BME280;8009;50.070;8.232;2023-11-19T01:37:36;99708.97;;;11.99;74.38
15817;BME280;8009;50.070;8.232;2023-11-19T01:40:06;99695.28;;;12.22;73.25
15817;BME280;8009;50.070;8.232;2023-11-19T01:42:39;99694.56;;;12.19;73.26
15817;BME280;8009;50.070;8.232;2023-11-19T01:45:08;99695.38;;;12.10;73.99
15817;BME280;8009;50.070;8.232;2023-11-19T01:47:37;99687.03;;;12.23;73.37
15817;BME280;8009;50.070;8.232;2023-11-19T01:50:07;99670.94;;;12.01;74.58
15817;BME280;8009;50.070;8.232;2023-11-19T01:52:38;99667.75;;;12.16;73.84
15817;BME280;8009;50.070;8.232;2023-11-19T01:55:14;99661.97;;;12.00;74.19
15817;BME280;8009;50.070;8.232;2023-11-19T01:57:49;99662.09;;;11.57;76.12
15817;BME280;8009;50.070;8.232;2023-11-19T02:00:18;99647.84;;;11.76;75.63
15817;BME280;8009;50.070;8.232;2023-11-19T02:02:47;99650.47;;;12.08;74.93
15817;BME280;8009;50.070;8.232;2023-11-19T02:05:17;99645.41;;;12.14;74.16
15817;BME280;8009;50.070;8.232;2023-11-19T02:07:46;99643.38;;;12.07;74.67
15817;BME280;8009;50.070;8.232;2023-11-19T02:10:15;99625.78;;;12.01;75.19
15817;BME280;8009;50.070;8.232;2023-11-19T02:12:44;99632.31;;;12.19;74.45
15817;BME280;8009;50.070;8.232;2023-11-19T02:15:19;99636.78;;;12.30;73.66
15817;BME280;8009;50.070;8.232;2023-11-19T02:17:50;99624.69;;;12.34;73.41
15817;BME280;8009;50.070;8.232;2023-11-19T02:20:18;99623.31;;;12.50;73.05
15817;BME280;8009;50.070;8.232;2023-11-19T02:22:46;99624.91;;;12.22;73.86
15817;BME280;8009;50.070;8.232;2023-11-19T02:25:20;99626.66;;;12.32;73.50
15817;BME280;8009;50.070;8.232;2023-11-19T02:27:57;99628.38;;;12.03;74.78
15817;BME280;8009;50.070;8.232;2023-11-19T02:30:26;99622.38;;;12.30;73.94
15817;BME280;8009;50.070;8.232;2023-11-19T02:32:55;99622.41;;;12.09;74.86
15817;BME280;8009;50.070;8.232;2023-11-19T02:35:26;99609.88;;;12.38;73.54
15817;BME280;8009;50.070;8.232;2023-11-19T02:37:56;99607.91;;;12.40;73.64
15817;BME280;8009;50.070;8.232;2023-11-19T02:40:24;99603.78;;;12.46;73.17
15817;BME280;8009;50.070;8.232;2023-11-19T02:42:55;99622.81;;;12.25;74.22
15817;BME280;8009;50.070;8.232;2023-11-19T02:45:26;99604.88;;;12.34;73.91
15817;BME280;8009;50.070;8.232;2023-11-19T02:47:56;99602.38;;;12.52;73.29
15817;BME280;8009;50.070;8.232;2023-11-19T02:50:27;99599.22;;;12.47;73.33
15817;BME280;8009;50.070;8.232;2023-11-19T02:52:56;99596.69;;;12.24;74.35
15817;BME280;8009;50.070;8.232;2023-11-19T02:55:25;99604.13;;;12.32;73.97
15817;BME280;8009;50.070;8.232;2023-11-19T02:57:58;99600.63;;;12.41;73.82
15817;BME280;8009;50.070;8.232;2023-11-19T03:00:30;99596.44;;;12.27;74.66
15817;BME280;8009;50.070;8.232;2023-11-19T03:03:02;99586.34;;;12.29;74.38
15817;BME280;8009;50.070;8.232;2023-11-19T03:05:43;99592.19;;;12.34;74.17
15817;BME280;8009;50.070;8.232;2023-11-19T03:08:12;99596.47;;;12.37;74.26
15817;BME280;8009;50.070;8.232;2023-11-19T03:10:40;99591.53;;;12.52;73.59
15817;BME280;8009;50.070;8.232;2023-11-19T03:13:13;99590.06;;;12.48;73.97
15817;BME280;8009;50.070;8.232;2023-11-19T03:15:42;99590.44;;;12.64;73.20
15817;BME280;8009;50.070;8.232;2023-11-19T03:18:11;99593.13;;;12.74;72.74
15817;BME280;8009;50.070;8.232;2023-11-19T03:20:39;99588.06;;;12.90;72.17
15817;BME280;8009;50.070;8.232;2023-11-19T03:23:10;99595.22;;;12.51;73.48
15817;BME280;8009;50.070;8.232;2023-11-19T03:25:38;99588.47;;;12.35;73.95
15817;BME280;8009;50.070;8.232;2023-11-19T03:28:08;99582.00;;;12.17;75.08
15817;BME280;8009;50.070;8.232;2023-11-19T03:30:39;99574.78;;;12.27;74.65
15817;BME280;8009;50.070;8.232;2023-11-19T03:33:08;99584.16;;;12.23;75.06
15817;BME280;8009;50.070;8.232;2023-11-19T03:35:38;99587.22;;;12.39;74.67
15817;BME280;8009;50.070;8.232;2023-11-19T03:38:07;99585.97;;;12.53;74.02
15817;BME280;8009;50.070;8.232;2023-11-19T03:40:35;99583.28;;;12.63;73.71
15817;BME280;8009;50.070;8.232;2023-11-19T03:43:04;99585.44;;;12.59;73.57
15817;BME280;8009;50.070;8.232;2023-11-19T03:45:34;99578.41;;;12.47;74.26
15817;BME280;8009;50.070;8.232;2023-11-19T03:48:05;99578.22;;;12.29;74.83
15817;BME280;8009;50.070;8.232;2023-11-19T03:50:34;99577.59;;;12.56;74.18
15817;BME280;8009;50.070;8.232;2023-11-19T03:53:02;99577.81;;;12.34;74.81
15817;BME280;8009;50.070;8.232;2023-11-19T03:55:30;99580.84;;;12.50;74.32
15817;BME280;8009;50.070;8.232;2023-11-19T03:57:59;99582.16;;;12.65;73.56
15817;BME280;8009;50.070;8.232;2023-11-19T04:00:27;99578.03;;;12.81;73.36
15817;BME280;8009;50.070;8.232;2023-11-19T04:02:56;99573.63;;;12.89;72.73
15817;BME280;8009;50.070;8.232;2023-11-19T04:05:27;99564.00;;;12.47;74.46
15817;BME280;8009;50.070;8.232;2023-11-19T04:07:55;99564.91;;;12.57;73.85
15817;BME280;8009;50.070;8.232;2023-11-19T04:10:23;99566.97;;;12.43;74.73
15817;BME280;8009;50.070;8.232;2023-11-19T04:12:52;99563.41;;;12.33;74.92
15817;BME280;8009;50.070;8.232;2023-11-19T04:15:21;99560.31;;;12.57;74.43
15817;BME280;8009;50.070;8.232;2023-11-19T04:17:49;99564.94;;;12.76;73.72
15817;BME280;8009;50.070;8.232;2023-11-19T04:20:17;99565.13;;;12.34;75.29
15817;BME280;8009;50.070;8.232;2023-11-19T04:22:49;99569.72;;;12.53;74.68
15817;BME280;8009;50.070;8.232;2023-11-19T04:25:19;99575.03;;;12.64;74.07
15817;BME280;8009;50.070;8.232;2023-11-19T04:27:47;99560.66;;;12.24;75.08
15817;BME280;8009;50.070;8.232;2023-11-19T04:30:15;99564.28;;;12.43;75.08
15817;BME280;8009;50.070;8.232;2023-11-19T04:32:44;99549.19;;;12.41;75.27
15817;BME280;8009;50.070;8.232;2023-11-19T04:35:14;99545.19;;;12.45;74.79
15817;BME280;8009;50.070;8.232;2023-11-19T04:37:42;99540.25;;;12.60;74.14
15817;BME280;8009;50.070;8.232;2023-11-19T04:40:13;99535.56;;;12.72;73.75
15817;BME280;8009;50.070;8.232;2023-11-19T04:42:43;99541.09;;;12.60;73.92
15817;BME280;8009;50.070;8.232;2023-11-19T04:45:11;99551.38;;;12.76;73.45
15817;BME280;8009;50.070;8.232;2023-11-19T04:47:41;99550.19;;;12.50;74.90
15817;BME280;8009;50.070;8.232;2023-11-19T04:50:10;99554.03;;;12.37;75.19
15817;BME280;8009;50.070;8.232;2023-11-19T04:52:38;99557.31;;;12.51;75.01
15817;BME280;8009;50.070;8.232;2023-11-19T04:55:13;99553.09;;;12.77;73.82
15817;BME280;8009;50.070;8.232;2023-11-19T04:57:41;99551.81;;;12.91;73.37
15817;BME280;8009;50.070;8.232;2023-11-19T05:00:11;99556.66;;;12.68;73.78
15817;BME280;8009;50.070;8.232;2023-11-19T05:02:40;99540.25;;;12.69;74.16
15817;BME280;8009;50.070;8.232;2023-11-19T05:05:08;99549.81;;;12.64;74.16
15817;BME280;8009;50.070;8.232;2023-11-19T05:07:37;99545.63;;;12.50;74.77
15817;BME280;8009;50.070;8.232;2023-11-19T05:10:06;99549.19;;;12.51;74.96
15817;BME280;8009;50.070;8.232;2023-11-19T05:12:37;99548.66;;;12.57;74.80
15817;BME280;8009;50.070;8.232;2023-11-19T05:15:07;99565.47;;;12.60;74.42
15817;BME280;8009;50.070;8.232;2023-11-19T05:17:37;99562.13;;;12.37;75.16
15817;BME280;8009;50.070;8.232;2023-11-19T05:20:06;99553.97;;;12.28;75.81
15817;BME280;8009;50.070;8.232;2023-11-19T05:22:39;99551.78;;;12.52;75.36
15817;BME280;8009;50.070;8.232;2023-11-19T05:25:07;99551.94;;;12.60;74.20
15817;BME280;8009;50.070;8.232;2023-11-19T05:27:39;99541.06;;;12.51;74.70
15817;BME280;8009;50.070;8.232;2023-11-19T05:30:07;99539.94;;;12.63;74.97
15817;BME280;8009;50.070;8.232;2023-11-19T05:32:36;99531.84;;;12.73;74.62
15817;BME280;8009;50.070;8.232;2023-11-19T05:35:05;99526.84;;;12.68;74.64
15817;BME280;8009;50.070;8.232;2023-11-19T05:37:34;99531.00;;;12.72;74.58
15817;BME280;8009;50.070;8.232;2023-11-19T05:40:03;99535.13;;;12.76;74.55
15817;BME280;8009;50.070;8.232;2023-11-19T05:42:42;99533.81;;;12.61;74.75
15817;BME280;8009;50.070;8.232;2023-11-19T05:45:12;99537.97;;;12.84;74.06
15817;BME280;8009;50.070;8.232;2023-11-19T05:47:41;99539.81;;;12.74;74.49
15817;BME280;8009;50.070;8.232;2023-11-19T05:50:11;99537.41;;;12.81;74.21
15817;BME280;8009;50.070;8.232;2023-11-19T05:52:39;99539.56;;;13.06;73.45
15817;BME280;8009;50.070;8.232;2023-11-19T05:55:08;99553.47;;;12.53;75.13
15817;BME280;8009;50.070;8.232;2023-11-19T05:57:38;99548.53;;;12.87;73.92
15817;BME280;8009;50.070;8.232;2023-11-19T06:00:11;99556.22;;;12.92;73.51
15817;BME280;8009;50.070;8.232;2023-11-19T06:02:40;99552.63;;;12.62;74.99
15817;BME280;8009;50.070;8.232;2023-11-19T06:05:09;99562.19;;;12.66;74.50
15817;BME280;8009;50.070;8.232;2023-11-19T06:07:37;99563.34;;;12.93;74.12
15817;BME280;8009;50.070;8.232;2023-11-19T06:10:07;99559.94;;;13.10;73.36
15817;BME280;8009;50.070;8.232;2023-11-19T06:12:36;99551.53;;;12.84;74.23
15817;BME280;8009;50.070;8.232;2023-11-19T06:15:10;99560.38;;;12.96;73.90
15817;BME280;8009;50.070;8.232;2023-11-19T06:17:38;99568.22;;;13.18;73.17
15817;BME280;8009;50.070;8.232;2023-11-19T06:20:08;99556.13;;;12.93;73.70
15817;BME280;8009;50.070;8.232;2023-11-19T06:22:37;99570.91;;;12.89;74.07
15817;BME280;8009;50.070;8.232;2023-11-19T06:25:06;99578.34;;;13.07;73.77
15817;BME280;8009;50.070;8.232;2023-11-19T06:27:34;99574.19;;;13.12;73.83
15817;BME280;8009;50.070;8.232;2023-11-19T06:30:04;99574.38;;;13.01;73.68
15817;BME280;8009;50.070;8.232;2023-11-19T06:32:35;99566.78;;;12.76;74.93
15817;BME280;8009;50.070;8.232;2023-11-19T06:35:04;99564.31;;;12.63;75.44
15817;BME280;8009;50.070;8.232;2023-11-19T06:37:32;99561.53;;;12.93;74.49
15817;BME280;8009;50.070;8.232;2023-11-19T06:40:01;99572.94;;;12.87;74.55
15817;BME280;8009;50.070;8.232;2023-11-19T06:42:30;99581.94;;;12.98;74.32
15817;BME280;8009;50.070;8.232;2023-11-19T06:44:59;99584.75;;;12.96;74.50
15817;BME280;8009;50.070;8.232;2023-11-19T06:47:27;99577.47;;;12.97;74.32
15817;BME280;8009;50.070;8.232;2023-11-19T06:49:58;99570.66;;;13.02;74.15
15817;BME280;8009;50.070;8.232;2023-11-19T06:52:29;99569.66;;;13.03;74.48
15817;BME280;8009;50.070;8.232;2023-11-19T06:54:57;99568.19;;;12.89;74.52
15817;BME280;8009;50.070;8.232;2023-11-19T06:57:25;99567.53;;;13.26;73.42
15817;BME280;8009;50.070;8.232;2023-11-19T06:59:54;99566.41;;;13.29;72.92
15817;BME280;8009;50.070;8.232;2023-11-19T07:02:23;99554.97;;;13.35;73.18
15817;BME280;8009;50.070;8.232;2023-11-19T07:04:51;99557.41;;;13.09;73.76
15817;BME280;8009;50.070;8.232;2023-11-19T07:07:22;99555.09;;;12.75;75.65
15817;BME280;8009;50.070;8.232;2023-11-19T07:09:51;99559.06;;;12.52;76.51
15817;BME280;8009;50.070;8.232;2023-11-19T07:12:20;99566.19;;;12.82;75.71
15817;BME280;8009;50.070;8.232;2023-11-19T07:14:48;99568.22;;;12.99;74.63
15817;BME280;8009;50.070;8.232;2023-11-19T07:17:17;99563.09;;;12.96;75.42
15817;BME280;8009;50.070;8.232;2023-11-19T07:19:45;99581.50;;;13.02;74.84
15817;BME280;8009;50.070;8.232;2023-11-19T07:22:14;99580.75;;;12.71;75.89
15817;BME280;8009;50.070;8.232;2023-11-19T07:24:45;99577.63;;;13.05;75.30
15817;BME280;8009;50.070;8.232;2023-11-19T07:27:16;99573.78;;;13.07;74.47
15817;BME280;8009;50.070;8.232;2023-11-19T07:29:44;99574.50;;;12.90;75.49
15817;BME280;8009;50.070;8.232;2023-11-19T07:32:13;99570.41;;;13.25;74.33
15817;BME280;8009;50.070;8.232;2023-11-19T07:34:42;99575.09;;;13.13;74.60
15817;BME280;8009;50.070;8.232;2023-11-19T07:37:11;99577.69;;;13.24;74.74
15817;BME280;8009;50.070;8.232;2023-11-19T07:39:44;99563.22;;;13.04;75.27
15817;BME280;8009;50.070;8.232;2023-11-19T07:42:13;99569.94;;;13.49;73.73
15817;BME280;8009;50.070;8.232;2023-11-19T07:44:43;99571.81;;;13.09;75.06
15817;BME280;8009;50.070;8.232;2023-11-19T07:47:11;99572.38;;;13.42;74.23
15817;BME280;8009;50.070;8.232;2023-11-19T07:49:40;99565.13;;;13.33;74.89
15817;BME280;8009;50.070;8.232;2023-11-19T07:52:09;99572.97;;;13.36;75.06
15817;BME280;8009;50.070;8.232;2023-11-19T07:54:37;99576.53;;;13.36;74.62
15817;BME280;8009;50.070;8.232;2023-11-19T07:57:08;99563.34;;;13.71;73.59
15817;BME280;8009;50.070;8.232;2023-11-19T07:59:36;99575.31;;;13.68;73.76
15817;BME280;8009;50.070;8.232;2023-11-19T08:02:05;99584.03;;;13.81;73.64
15817;BME280;8009;50.070;8.232;2023-11-19T08:04:34;99583.59;;;13.76;73.81
15817;BME280;8009;50.070;8.232;2023-11-19T08:07:05;99580.34;;;13.53;75.02
15817;BME280;8009;50.070;8.232;2023-11-19T08:09:33;99584.19;;;13.60;74.97
15817;BME280;8009;50.070;8.232;2023-11-19T08:12:04;99592.41;;;13.88;74.35
15817;BME280;8009;50.070;8.232;2023-11-19T08:14:35;99590.16;;;13.83;73.95
15817;BME280;8009;50.070;8.232;2023-11-19T08:17:03;99595.19;;;13.49;75.66
15817;BME280;8009;50.070;8.232;2023-11-19T08:19:32;99593.25;;;13.88;74.36
15817;BME280;8009;50.070;8.232;2023-11-19T08:22:00;99608.44;;;13.81;74.88
15817;BME280;8009;50.070;8.232;2023-11-19T08:24:28;99608.63;;;14.07;74.38
15817;BME280;8009;50.070;8.232;2023-11-19T08:26:56;99609.47;;;14.08;74.13
15817;BME280;8009;50.070;8.232;2023-11-19T08:29:25;99608.16;;;13.07;78.91
15817;BME280;8009;50.070;8.232;2023-11-19T08:31:57;99612.13;;;13.90;75.86
15817;BME280;8009;50.070;8.232;2023-11-19T08:34:25;99599.94;;;14.04;75.34
15817;BME280;8009;50.070;8.232;2023-11-19T08:36:53;99601.38;;;13.98;75.37
15817;BME280;8009;50.070;8.232;2023-11-19T08:39:22;99610.19;;;14.10;74.99
15817;BME280;8009;50.070;8.232;2023-11-19T08:41:50;99609.81;;;14.05;75.00
15817;BME280;8009;50.070;8.232;2023-11-19T08:44:20;99610.41;;;14.26;74.73
15817;BME280;8009;50.070;8.232;2023-11-19T08:46:48;99603.19;;;14.45;74.09
15817;BME280;8009;50.070;8.232;2023-11-19T08:49:19;99605.59;;;14.57;74.02
15817;BME280;8009;50.070;8.232;2023-11-19T08:51:48;99628.56;;;14.26;74.92
15817;BME280;8009;50.070;8.232;2023-11-19T08:54:16;99625.28;;;13.75;78.19
15817;BME280;8009;50.070;8.232;2023-11-19T08:56:45;99605.59;;;14.57;74.89
15817;BME280;8009;50.070;8.232;2023-11-19T08:59:14;99606.03;;;14.80;73.68
15817;BME280;8009;50.070;8.232;2023-11-19T09:01:44;99601.59;;;14.61;74.13
15817;BME280;8009;50.070;8.232;2023-11-19T09:04:12;99597.19;;;14.78;73.88
15817;BME280;8009;50.070;8.232;2023-11-19T09:06:44;99601.06;;;14.76;74.37
15817;BME280;8009;50.070;8.232;2023-11-19T09:09:12;99603.63;;;14.95;73.88
15817;BME280;8009;50.070;8.232;2023-11-19T09:11:40;99600.66;;;14.71;74.70
15817;BME280;8009;50.070;8.232;2023-11-19T09:14:09;99602.00;;;14.57;75.59
15817;BME280;8009;50.070;8.232;2023-11-19T09:16:37;99607.59;;;14.18;77.03
15817;BME280;8009;50.070;8.232;2023-11-19T09:19:05;99601.06;;;14.76;74.73
15817;BME280;8009;50.070;8.232;2023-11-19T09:21:33;99590.94;;;14.68;75.03
15817;BME280;8009;50.070;8.232;2023-11-19T09:24:07;99595.69;;;14.66;75.63
15817;BME280;8009;50.070;8.232;2023-11-19T09:26:35;99608.06;;;14.04;78.61
15817;BME280;8009;50.070;8.232;2023-11-19T09:29:07;99602.91;;;14.10;77.22
15817;BME280;8009;50.070;8.232;2023-11-19T09:31:39;99600.72;;;14.24;76.74
15817;BME280;8009;50.070;8.232;2023-11-19T09:34:12;99606.47;;;14.21;77.08
15817;BME280;8009;50.070;8.232;2023-11-19T09:36:41;99605.81;;;14.36;76.62
15817;BME280;8009;50.070;8.232;2023-11-19T09:39:14;99598.78;;;14.44;76.28
15817;BME280;8009;50.070;8.232;2023-11-19T09:41:48;99603.56;;;13.85;78.27
15817;BME280;8009;50.070;8.232;2023-11-19T09:44:21;99601.84;;;13.94;77.90
15817;BME280;8009;50.070;8.232;2023-11-19T09:46:49;99609.53;;;14.35;77.00
15817;BME280;8009;50.070;8.232;2023-11-19T09:49:21;99604.78;;;14.10;77.02
15817;BME280;8009;50.070;8.232;2023-11-19T09:51:50;99601.97;;;14.67;74.76
15817;BME280;8009;50.070;8.232;2023-11-19T09:54:21;99602.38;;;14.72;75.24
15817;BME280;8009;50.070;8.232;2023-11-19T09:56:50;99598.75;;;14.81;73.78
15817;BME280;8009;50.070;8.232;2023-11-19T09:59:21;99603.41;;;15.06;71.39
15817;BME280;8009;50.070;8.232;2023-11-19T10:01:52;99613.69;;;15.30;71.02
15817;BME280;8009;50.070;8.232;2023-11-19T10:04:22;99595.69;;;14.84;72.45
15817;BME280;8009;50.070;8.232;2023-11-19T10:06:51;99597.19;;;15.14;71.32
15817;BME280;8009;50.070;8.232;2023-11-19T10:09:22;99593.22;;;15.44;70.50
15817;BME280;8009;50.070;8.232;2023-11-19T10:12:19;99598.53;;;15.46;70.27
15817;BME280;8009;50.070;8.232;2023-11-19T10:17:58;99583.94;;;14.93;71.80
15817;BME280;8009;50.070;8.232;2023-11-19T10:23:50;99590.03;;;14.50;71.13
15817;BME280;8009;50.070;8.232;2023-11-19T10:26:21;99598.97;;;15.41;70.05
15817;BME280;8009;50.070;8.232;2023-11-19T10:28:50;99605.06;;;15.17;69.70
15817;BME280;8009;50.070;8.232;2023-11-19T10:31:19;99600.53;;;15.44;68.19
15817;BME280;8009;50.070;8.232;2023-11-19T10:33:50;99601.16;;;15.55;67.14
15817;BME280;8009;50.070;8.232;2023-11-19T10:36:19;99594.63;;;15.48;68.75
15817;BME280;8009;50.070;8.232;2023-11-19T10:38:52;99596.75;;;15.01;67.37
15817;BME280;8009;50.070;8.232;2023-11-19T10:41:31;99588.97;;;15.24;66.30
15817;BME280;8009;50.070;8.232;2023-11-19T10:43:59;99594.72;;;14.57;65.60
15817;BME280;8009;50.070;8.232;2023-11-19T10:46:37;99582.13;;;15.38;65.44
15817;BME280;8009;50.070;8.232;2023-11-19T10:49:07;99591.34;;;15.45;64.91
15817;BME280;8009;50.070;8.232;2023-11-19T10:51:36;99578.53;;;15.55;65.47
15817;BME280;8009;50.070;8.232;2023-11-19T10:54:05;99579.25;;;14.85;66.04
15817;BME280;8009;50.070;8.232;2023-11-19T10:56:37;99574.97;;;15.36;64.35
15817;BME280;8009;50.070;8.232;2023-11-19T10:59:06;99581.66;;;15.24;67.86
15817;BME280;8009;50.070;8.232;2023-11-19T11:01:43;99581.59;;;15.34;66.60
15817;BME280;8009;50.070;8.232;2023-11-19T11:04:14;99586.63;;;15.65;64.24
15817;BME280;8009;50.070;8.232;2023-11-19T11:06:43;99575.19;;;15.61;63.00
15817;BME280;8009;50.070;8.232;2023-11-19T11:09:12;99572.91;;;15.56;63.74
15817;BME280;8009;50.070;8.232;2023-11-19T11:11:46;99568.97;;;15.69;62.39
15817;BME280;8009;50.070;8.232;2023-11-19T11:14:16;99576.66;;;15.38;63.67
15817;BME280;8009;50.070;8.232;2023-11-19T11:16:48;99573.72;;;15.67;62.53
15817;BME280;8009;50.070;8.232;2023-11-19T11:19:17;99567.28;;;15.50;63.23
15817;BME280;8009;50.070;8.232;2023-11-19T11:21:50;99579.69;;;15.70;63.30
15817;BME280;8009;50.070;8.232;2023-11-19T11:24:47;99578.13;;;16.20;61.05
15817;BME280;8009;50.070;8.232;2023-11-19T11:27:51;99577.88;;;16.05;62.23
15817;BME280;8009;50.070;8.232;2023-11-19T11:30:31;99577.56;;;15.38;65.62
15817;BME280;8009;50.070;8.232;2023-11-19T11:33:14;99569.53;;;15.36;64.07
15817;BME280;8009;50.070;8.232;2023-11-19T11:36:17;99567.97;;;15.52;64.58
15817;BME280;8009;50.070;8.232;2023-11-19T11:45:04;99567.88;;;16.14;62.05
15817;BME280;8009;50.070;8.232;2023-11-19T11:48:04;99559.41;;;15.65;66.05
15817;BME280;8009;50.070;8.232;2023-11-19T11:50:35;99550.59;;;15.53;63.97
15817;BME280;8009;50.070;8.232;2023-11-19T11:53:20;99563.69;;;15.67;62.31
15817;BME280;8009;50.070;8.232;2023-11-19T11:59:00;99550.19;;;15.83;62.06
15817;BME280;8009;50.070;8.232;2023-11-19T12:01:31;99560.28;;;15.91;62.38
15817;BME280;8009;50.070;8.232;2023-11-19T12:04:00;99553.88;;;15.56;62.59
15817;BME280;8009;50.070;8.232;2023-11-19T12:06:28;99545.75;;;15.82;60.90
15817;BME280;8009;50.070;8.232;2023-11-19T12:08:59;99549.00;;;15.86;63.17
15817;BME280;8009;50.070;8.232;2023-11-19T12:11:28;99550.16;;;15.57;61.27
15817;BME280;8009;50.070;8.232;2023-11-19T12:17:41;99551.94;;;15.67;62.23
15817;BME280;8009;50.070;8.232;2023-11-19T12:20:10;99557.69;;;15.90;61.22
15817;BME280;8009;50.070;8.232;2023-11-19T12:25:45;99537.41;;;15.58;62.97
15817;BME280;8009;50.070;8.232;2023-11-19T12:31:24;99526.44;;;15.24;61.55
15817;BME280;8009;50.070;8.232;2023-11-19T12:34:22;99524.78;;;15.75;59.57
15817;BME280;8009;50.070;8.232;2023-11-19T12:36:52;99526.97;;;14.92;61.22
15817;BME280;8009;50.070;8.232;2023-11-19T12:39:22;99514.19;;;15.72;60.39
15817;BME280;8009;50.070;8.232;2023-11-19T12:41:51;99509.28;;;15.75;59.68
15817;BME280;8009;50.070;8.232;2023-11-19T12:44:21;99500.69;;;15.62;62.23
15817;BME280;8009;50.070;8.232;2023-11-19T12:47:02;99505.94;;;15.38;61.68
15817;BME280;8009;50.070;8.232;2023-11-19T12:49:34;99505.84;;;15.47;62.97
15817;BME280;8009;50.070;8.232;2023-11-19T12:52:11;99510.41;;;15.39;60.83
15817;BME280;8009;50.070;8.232;2023-11-19T12:54:40;99508.91;;;15.44;62.82
15817;BME280;8009;50.070;8.232;2023-11-19T12:57:10;99503.84;;;15.05;62.55
15817;BME280;8009;50.070;8.232;2023-11-19T12:59:39;99501.25;;;15.48;61.30
15817;BME280;8009;50.070;8.232;2023-11-19T13:02:08;99498.41;;;15.75;59.00
15817;BME280;8009;50.070;8.232;2023-11-19T13:04:39;99496.88;;;15.73;59.38
15817;BME280;8009;50.070;8.232;2023-11-19T13:07:08;99492.00;;;15.58;61.99
15817;BME280;8009;50.070;8.232;2023-11-19T13:09:37;99492.78;;;15.51;59.96
15817;BME280;8009;50.070;8.232;2023-11-19T13:12:15;99496.94;;;15.11;60.38
15817;BME280;8009;50.070;8.232;2023-11-19T13:14:44;99484.63;;;15.25;60.50
15817;BME280;8009;50.070;8.232;2023-11-19T13:17:13;99481.66;;;14.92;60.05
15817;BME280;8009;50.070;8.232;2023-11-19T13:19:47;99486.06;;;15.11;61.03
15817;BME280;8009;50.070;8.232;2023-11-19T13:22:16;99484.13;;;15.55;59.25
15817;BME280;8009;50.070;8.232;2023-11-19T13:24:44;99481.09;;;15.76;58.69
15817;BME280;8009;50.070;8.232;2023-11-19T13:27:13;99479.47;;;15.92;58.50
15817;BME280;8009;50.070;8.232;2023-11-19T13:29:41;99490.91;;;15.25;59.20
15817;BME280;8009;50.070;8.232;2023-11-19T13:32:10;99494.78;;;15.67;58.78
15817;BME280;8009;50.070;8.232;2023-11-19T13:34:46;99470.31;;;16.09;58.42
15817;BME280;8009;50.070;8.232;2023-11-19T13:37:15;99475.78;;;15.23;60.09
15817;BME280;8009;50.070;8.232;2023-11-19T13:39:43;99467.78;;;15.47;60.95
15817;BME280;8009;50.070;8.232;2023-11-19T13:42:13;99463.16;;;15.66;60.91
15817;BME280;8009;50.070;8.232;2023-11-19T13:44:42;99451.41;;;15.65;61.32
15817;BME280;8009;50.070;8.232;2023-11-19T13:47:11;99455.88;;;15.74;58.67
15817;BME280;8009;50.070;8.232;2023-11-19T13:49:40;99454.69;;;15.69;58.76
15817;BME280;8009;50.070;8.232;2023-11-19T13:52:13;99448.06;;;15.79;58.23